Austin, Pennsylvania
Current Conditions -  °F | °C
As of 12:53 PM on Thursday 23 Oct 2014 (Local Time) from KBFD Reporting Station
Clear Clear  
Wind Chill: 54°   Ceiling: Unl
Heat Index: 54°   Visibility: 10mi
Dew Point: 37°   Wind: 18mph
Humidity: 53%   Direction: 350°N
Pressure: 30.04"   Gusts: 26mph
Location:  41.63°N, 78.09°W
Report Text: KBFD 231653Z AUTO 35016G23KT 10SM CLR 12/03 A3004 RMK AO2 PK WND 33026/1614 SLP176 T01220028
Loading
Personal Weather Stations






























Interactive Weather Map New forecast layout! Learn more

10-Day Weather Forecast

Advertisements
Track Severe Weather on mobile